createdAt,value
2019-03-11T00:01:48.338Z,1.00
2019-03-11T00:04:35.698Z,0.90
2019-03-11T00:07:23.602Z,1.10
2019-03-11T00:10:11.840Z,1.00
2019-03-11T00:12:59.671Z,1.10
2019-03-11T00:15:47.095Z,0.90
2019-03-11T00:18:34.328Z,1.00
2019-03-11T00:21:22.048Z,1.10
2019-03-11T00:24:09.573Z,1.17
2019-03-11T00:26:56.879Z,1.10
2019-03-11T00:29:44.632Z,1.10
2019-03-11T00:32:33.483Z,1.13
2019-03-11T00:35:20.957Z,0.90
2019-03-11T00:38:08.194Z,1.10
2019-03-11T00:40:55.550Z,1.40
2019-03-11T00:43:43.182Z,1.10
2019-03-11T00:46:30.710Z,1.00
2019-03-11T00:49:18.135Z,1.00
2019-03-11T00:52:05.759Z,1.00
2019-03-11T00:54:52.781Z,0.90
2019-03-11T00:57:40.405Z,1.23
2019-03-11T01:00:33.461Z,1.20
2019-03-11T01:03:20.985Z,1.13
2019-03-11T01:06:08.725Z,1.10
2019-03-11T01:08:56.141Z,1.00
2019-03-11T01:11:43.668Z,1.37
2019-03-11T01:14:31.500Z,1.50
2019-03-11T01:17:19.236Z,1.20
2019-03-11T01:20:09.300Z,1.40
2019-03-11T01:22:56.951Z,1.63
2019-03-11T01:25:44.781Z,1.67
2019-03-11T01:28:32.618Z,1.67
2019-03-11T01:31:19.936Z,1.80
2019-03-11T01:34:07.463Z,2.20
2019-03-11T01:36:54.888Z,1.77
2019-03-11T01:39:42.515Z,2.00
2019-03-11T01:42:29.877Z,2.03
2019-03-11T01:45:18.549Z,1.90
2019-03-11T01:48:06.016Z,1.90
2019-03-11T01:50:53.645Z,2.30
2019-03-11T01:53:41.072Z,2.70
2019-03-11T01:56:28.907Z,2.20
2019-03-11T01:59:16.126Z,2.57
2019-03-11T02:02:03.691Z,2.97
2019-03-11T02:04:50.766Z,3.00
2019-03-11T02:07:38.498Z,2.60
2019-03-11T02:10:25.616Z,2.47
2019-03-11T02:13:13.062Z,2.80
2019-03-11T02:16:00.669Z,2.53
2019-03-11T02:18:48.233Z,2.23
2019-03-11T02:21:35.620Z,2.67
2019-03-11T02:24:23.453Z,2.63
2019-03-11T02:27:10.982Z,2.10
2019-03-11T02:29:58.511Z,2.30
2019-03-11T02:32:46.250Z,2.43
2019-03-11T02:35:33.560Z,2.40
2019-03-11T02:38:21.121Z,2.30
2019-03-11T02:41:08.714Z,2.13
2019-03-11T02:43:56.148Z,2.30
2019-03-11T02:46:43.564Z,2.50
2019-03-11T02:49:31.208Z,2.30
2019-03-11T02:52:19.035Z,2.10
2019-03-11T02:55:07.750Z,2.40
2019-03-11T02:57:55.513Z,1.90
2019-03-11T03:00:43.244Z,2.23
2019-03-11T03:03:37.857Z,1.73
2019-03-11T03:06:25.465Z,1.60
2019-03-11T03:09:15.868Z,2.33
2019-03-11T03:12:03.658Z,1.90
2019-03-11T03:14:51.140Z,2.20
2019-03-11T03:17:38.442Z,1.60
2019-03-11T03:20:25.873Z,1.90
2019-03-11T03:23:13.491Z,1.77
2019-03-11T03:26:00.930Z,1.57
2019-03-11T03:28:48.645Z,1.97
2019-03-11T03:31:36.014Z,1.70
2019-03-11T03:34:23.429Z,2.03
2019-03-11T03:37:11.019Z,1.70
2019-03-11T03:39:58.652Z,1.80
2019-03-11T03:42:46.675Z,1.60
2019-03-11T03:45:39.863Z,1.90
2019-03-11T03:48:27.413Z,1.67
2019-03-11T03:51:15.207Z,1.87
2019-03-11T03:54:02.937Z,2.03
2019-03-11T03:56:53.698Z,1.77
2019-03-11T03:59:39.437Z,2.00
2019-03-11T04:02:27.261Z,1.73
2019-03-11T04:05:15.109Z,1.50
2019-03-11T04:08:02.729Z,1.50
2019-03-11T04:10:50.147Z,1.40
2019-03-11T04:13:38.243Z,0.97
2019-03-11T04:16:25.824Z,1.00
2019-03-11T04:19:13.445Z,0.90
2019-03-11T04:22:01.174Z,0.93
2019-03-11T04:24:48.696Z,0.80
2019-03-11T04:27:36.127Z,0.70
2019-03-11T04:30:26.208Z,0.87
2019-03-11T04:33:13.634Z,0.70
2019-03-11T04:36:01.877Z,0.70
2019-03-11T04:38:49.094Z,0.77
2019-03-11T04:41:36.214Z,0.70
2019-03-11T04:44:23.636Z,0.70
2019-03-11T04:47:10.860Z,0.70
2019-03-11T04:50:00.120Z,0.80
2019-03-11T04:52:47.350Z,0.80
2019-03-11T04:55:34.871Z,0.70
2019-03-11T04:58:22.501Z,0.87
2019-03-11T05:01:10.232Z,0.90
2019-03-11T05:03:57.962Z,1.00
2019-03-11T05:06:45.513Z,0.97
2019-03-11T05:09:33.013Z,0.80
2019-03-11T05:12:20.538Z,0.90
2019-03-11T05:15:11.417Z,0.80
2019-03-11T05:17:58.721Z,0.77
2019-03-11T05:20:46.397Z,0.83
2019-03-11T05:23:33.921Z,0.70
2019-03-11T05:26:21.447Z,0.80
2019-03-11T05:29:08.976Z,0.73
2019-03-11T05:31:56.093Z,0.73
2019-03-11T05:34:43.413Z,0.60
2019-03-11T05:37:30.844Z,0.80
2019-03-11T05:40:18.839Z,0.70
2019-03-11T05:43:06.418Z,0.70
2019-03-11T05:45:54.040Z,0.70
2019-03-11T05:48:41.668Z,0.77
2019-03-11T05:51:31.768Z,0.70
2019-03-11T05:54:18.253Z,0.80
2019-03-11T05:57:05.687Z,0.93
2019-03-11T05:59:53.350Z,1.20
2019-03-11T06:02:40.740Z,0.90
2019-03-11T06:05:28.604Z,1.10
2019-03-11T06:08:23.674Z,1.10
2019-03-11T06:11:11.406Z,1.20
2019-03-11T06:13:59.229Z,1.27
2019-03-11T06:16:46.756Z,2.00
2019-03-11T06:19:34.489Z,1.30
2019-03-11T06:22:23.549Z,1.20
2019-03-11T06:25:11.491Z,1.10
2019-03-11T06:28:03.108Z,1.40
2019-03-11T06:30:50.772Z,1.20
2019-03-11T06:33:38.371Z,1.53
2019-03-11T06:36:25.481Z,1.40
2019-03-11T06:39:12.906Z,1.23
2019-03-11T06:42:00.741Z,1.57
2019-03-11T06:44:48.107Z,1.60
2019-03-11T06:47:35.587Z,1.50
2019-03-11T06:50:23.122Z,1.53
2019-03-11T06:53:10.545Z,1.80
2019-03-11T06:55:58.272Z,1.60
2019-03-11T06:58:45.698Z,1.60
2019-03-11T07:01:33.528Z,1.60
2019-03-11T07:04:20.957Z,1.50
2019-03-11T07:07:08.482Z,1.80
2019-03-11T07:09:56.109Z,1.90
2019-03-11T07:12:43.638Z,1.83
2019-03-11T07:15:31.062Z,2.00
2019-03-11T07:18:18.280Z,2.10
2019-03-11T07:21:05.386Z,2.07
2019-03-11T07:23:52.715Z,1.80
2019-03-11T07:26:40.549Z,2.30
2019-03-11T07:29:28.284Z,1.93
2019-03-11T07:32:16.015Z,2.13
2019-03-11T07:35:08.230Z,2.00
2019-03-11T07:37:53.521Z,2.10
2019-03-11T07:40:41.374Z,2.20
2019-03-11T07:43:28.429Z,2.10
2019-03-11T07:46:16.204Z,2.10
2019-03-11T07:49:03.528Z,1.70
2019-03-11T07:51:51.254Z,1.83
2019-03-11T07:54:38.585Z,1.90
2019-03-11T07:57:26.212Z,1.60
2019-03-11T08:00:18.955Z,1.83
2019-03-11T08:03:06.690Z,1.60
2019-03-11T08:05:54.317Z,1.60
2019-03-11T08:08:41.740Z,1.40
2019-03-11T08:11:29.164Z,1.43
2019-03-11T08:14:16.392Z,1.50
2019-03-11T08:17:03.982Z,1.70
2019-03-11T08:19:51.231Z,1.70
2019-03-11T08:22:38.844Z,1.60
2019-03-11T08:25:26.488Z,1.90
2019-03-11T08:28:13.914Z,1.77
2019-03-11T08:31:01.234Z,1.93
2019-03-11T08:33:49.769Z,2.20
2019-03-11T08:39:09.901Z,2.17
2019-03-11T08:41:57.832Z,2.50
2019-03-11T08:44:45.556Z,2.00
2019-03-11T08:47:33.084Z,1.90
2019-03-11T08:50:20.406Z,2.40
2019-03-11T08:53:08.237Z,1.70
2019-03-11T08:55:56.076Z,1.70
2019-03-11T08:58:44.007Z,1.80
2019-03-11T09:01:31.840Z,1.73
2019-03-11T09:04:19.675Z,1.60
2019-03-11T09:07:07.307Z,1.57
2019-03-11T09:09:54.525Z,1.47
2019-03-11T09:12:42.049Z,1.50
2019-03-11T09:15:29.985Z,1.50
2019-03-11T09:18:18.082Z,1.30
2019-03-11T09:21:05.963Z,1.60
2019-03-11T09:23:53.384Z,1.70
2019-03-11T09:26:40.832Z,1.50
2019-03-11T09:29:28.746Z,1.20
2019-03-11T09:32:16.170Z,1.37
2019-03-11T09:35:04.410Z,1.40
2019-03-11T09:37:52.045Z,1.57
2019-03-11T09:40:39.976Z,1.70
2019-03-11T09:43:27.710Z,1.80
2019-03-11T09:46:15.253Z,1.60
2019-03-11T09:49:02.867Z,2.00
2019-03-11T09:51:50.904Z,1.80
2019-03-11T09:54:38.432Z,1.60
2019-03-11T09:57:25.955Z,1.57
2019-03-11T10:00:27.305Z,1.80
2019-03-11T10:03:14.933Z,1.60
2019-03-11T10:06:02.359Z,1.70
2019-03-11T10:08:50.909Z,1.80
2019-03-11T10:11:38.438Z,1.70
2019-03-11T10:14:25.859Z,2.00
2019-03-11T10:17:13.692Z,1.60
2019-03-11T10:20:01.423Z,1.60
2019-03-11T10:22:49.463Z,1.80
2019-03-11T10:25:36.887Z,1.97
2019-03-11T10:28:24.522Z,1.47
2019-03-11T10:31:12.145Z,1.60
2019-03-11T10:33:59.670Z,1.60
2019-03-11T10:36:47.197Z,1.60
2019-03-11T10:39:34.623Z,1.40
2019-03-11T10:42:22.348Z,1.70
2019-03-11T10:45:12.005Z,1.53
2019-03-11T10:47:59.769Z,1.50
2019-03-11T10:50:47.553Z,1.33
2019-03-11T10:53:35.127Z,1.70
2019-03-11T10:56:22.346Z,1.33
2019-03-11T10:59:09.455Z,1.60
2019-03-11T11:01:57.084Z,1.43
2019-03-11T11:04:44.510Z,1.27
2019-03-11T11:07:32.241Z,1.33
2019-03-11T11:10:20.053Z,1.53
2019-03-11T11:13:07.914Z,1.30
2019-03-11T11:15:55.434Z,1.20
2019-03-11T11:18:43.069Z,1.33
2019-03-11T11:21:30.708Z,1.40
2019-03-11T11:24:17.924Z,1.13
2019-03-11T11:27:05.649Z,1.00
2019-03-11T11:29:53.178Z,1.33
2019-03-11T11:32:40.399Z,1.07
2019-03-11T11:35:28.546Z,1.20
2019-03-11T11:38:16.081Z,1.20
2019-03-11T11:41:03.495Z,1.20
2019-03-11T11:43:51.525Z,1.30
2019-03-11T11:46:39.353Z,1.60
2019-03-11T11:49:27.207Z,1.30
2019-03-11T11:52:14.822Z,1.30
2019-03-11T11:55:02.853Z,1.23
2019-03-11T11:57:50.519Z,1.30
2019-03-11T12:00:39.773Z,1.33
2019-03-11T12:03:27.378Z,1.30
2019-03-11T12:06:14.813Z,1.40
2019-03-11T12:09:02.328Z,1.53
2019-03-11T12:11:50.177Z,1.37
2019-03-11T12:14:37.526Z,1.40
2019-03-11T12:17:25.114Z,1.37
2019-03-11T12:20:27.291Z,1.07
2019-03-11T12:23:14.603Z,0.97
2019-03-11T12:26:01.942Z,1.10
2019-03-11T12:28:49.576Z,1.10
2019-03-11T12:31:37.595Z,1.03
2019-03-11T12:34:25.017Z,1.17
2019-03-11T12:37:12.546Z,1.13
2019-03-11T12:39:59.865Z,1.10
2019-03-11T12:42:47.698Z,1.20
2019-03-11T12:45:35.123Z,1.40
2019-03-11T12:48:22.858Z,1.47
2019-03-11T12:51:10.689Z,1.30
2019-03-11T12:53:58.116Z,1.60
2019-03-11T12:56:45.980Z,1.50
2019-03-11T12:59:40.543Z,1.63
2019-03-11T13:02:23.149Z,1.30
2019-03-11T13:05:11.597Z,1.50
2019-03-11T13:07:59.022Z,1.70
2019-03-11T13:10:46.652Z,1.53
2019-03-11T13:13:34.383Z,1.63
2019-03-11T13:16:21.912Z,1.70
2019-03-11T13:19:13.315Z,1.60
2019-03-11T13:21:58.301Z,1.87
2019-03-11T13:24:45.614Z,1.80
2019-03-11T13:27:33.550Z,1.80
2019-03-11T13:30:20.976Z,1.80
2019-03-11T13:33:08.712Z,1.90
2019-03-11T13:35:56.793Z,1.70
2019-03-11T13:38:44.474Z,2.07
2019-03-11T13:41:32.207Z,1.97
2019-03-11T13:44:19.836Z,2.00
2019-03-11T13:47:07.467Z,1.77
2019-03-11T13:49:54.683Z,1.67
2019-03-11T13:52:42.418Z,1.90
2019-03-11T13:55:29.846Z,1.80
2019-03-11T13:58:17.443Z,1.97
2019-03-11T14:01:05.405Z,1.60
2019-03-11T14:03:53.033Z,2.13
2019-03-11T14:06:40.762Z,2.07
2019-03-11T14:09:32.487Z,1.70
2019-03-11T14:12:20.218Z,1.93
2019-03-11T14:15:10.816Z,1.70
2019-03-11T14:17:58.551Z,1.80
2019-03-11T14:20:46.074Z,1.80
2019-03-11T14:23:33.910Z,1.90
2019-03-11T14:26:21.334Z,1.80
2019-03-11T14:29:08.988Z,1.70
2019-03-11T14:31:56.695Z,1.90
2019-03-11T14:34:44.527Z,2.00
2019-03-11T14:37:33.395Z,2.00
2019-03-11T14:40:21.530Z,2.20
2019-03-11T14:43:09.260Z,2.20
2019-03-11T14:45:57.121Z,2.50
2019-03-11T14:48:44.619Z,2.20
2019-03-11T14:51:31.947Z,2.20
2019-03-11T14:54:19.471Z,2.60
2019-03-11T14:57:06.962Z,3.10
2019-03-11T14:59:54.722Z,2.50
2019-03-11T15:02:42.101Z,2.70
2019-03-11T15:05:29.572Z,1.90
2019-03-11T15:08:16.995Z,1.60
2019-03-11T15:11:03.861Z,1.73
2019-03-11T15:13:51.129Z,1.53
2019-03-11T15:16:38.245Z,1.53
2019-03-11T15:19:25.880Z,1.47
2019-03-11T15:22:13.298Z,1.43
2019-03-11T15:25:01.130Z,1.40
2019-03-11T15:27:49.246Z,1.60
2019-03-11T15:30:37.004Z,1.57
2019-03-11T15:33:24.325Z,1.60
2019-03-11T15:36:12.263Z,1.70
2019-03-11T15:38:59.998Z,1.60
2019-03-11T15:41:48.244Z,1.77
2019-03-11T15:44:36.070Z,1.60
2019-03-11T15:47:23.600Z,1.50
2019-03-11T15:50:31.603Z,1.70
2019-03-11T15:53:19.132Z,1.80
2019-03-11T15:56:06.455Z,1.90
2019-03-11T15:58:54.284Z,1.80
2019-03-11T16:01:42.023Z,1.87
2019-03-11T16:04:30.155Z,1.87
2019-03-11T16:07:17.988Z,1.80
2019-03-11T16:10:16.804Z,1.90
2019-03-11T16:12:58.986Z,1.97
2019-03-11T16:15:46.616Z,2.10
2019-03-11T16:18:34.242Z,1.73
2019-03-11T16:21:21.767Z,1.80
2019-03-11T16:24:09.396Z,1.90
2019-03-11T16:26:59.176Z,2.10
2019-03-11T16:29:46.293Z,2.07
2019-03-11T16:32:37.078Z,2.10
2019-03-11T16:35:24.621Z,1.83
2019-03-11T16:38:12.249Z,2.00
2019-03-11T16:40:59.882Z,2.03
2019-03-11T16:43:47.409Z,2.10
2019-03-11T16:46:34.831Z,2.03
2019-03-11T16:49:22.459Z,1.87
2019-03-11T16:52:10.295Z,2.00
2019-03-11T16:54:58.847Z,1.87
2019-03-11T16:57:46.370Z,2.13
2019-03-11T17:00:38.507Z,2.03
2019-03-11T17:03:26.286Z,1.90
2019-03-11T17:06:13.863Z,1.80
2019-03-11T17:09:01.287Z,1.90
2019-03-11T17:11:49.224Z,1.80
2019-03-11T17:14:36.748Z,1.70
2019-03-11T17:17:24.584Z,1.93
2019-03-11T17:20:18.359Z,1.90
2019-03-11T17:23:06.087Z,1.70
2019-03-11T17:25:53.515Z,1.87
2019-03-11T17:28:41.165Z,1.53
2019-03-11T17:31:28.772Z,1.67
2019-03-11T17:34:15.998Z,1.57
2019-03-11T17:37:03.824Z,1.60
2019-03-11T17:39:51.349Z,1.80
2019-03-11T17:42:39.042Z,1.60
2019-03-11T17:45:26.613Z,1.40
2019-03-11T17:48:14.133Z,1.47
2019-03-11T17:51:01.863Z,1.63
2019-03-11T17:53:49.288Z,1.33
2019-03-11T17:56:36.814Z,1.70
2019-03-11T17:59:24.149Z,1.77
2019-03-11T18:02:12.075Z,1.60
2019-03-11T18:04:59.733Z,1.30
2019-03-11T18:07:47.127Z,1.40
2019-03-11T18:10:34.446Z,1.20
2019-03-11T18:13:22.281Z,1.30
2019-03-11T18:16:10.116Z,1.40
2019-03-11T18:18:57.848Z,1.40
2019-03-11T18:21:45.581Z,1.23
2019-03-11T18:24:33.596Z,1.73
2019-03-11T18:27:21.284Z,1.53
2019-03-11T18:30:14.322Z,1.40
2019-03-11T18:33:01.864Z,1.57
2019-03-11T18:35:49.272Z,2.00
2019-03-11T18:38:36.986Z,1.60
2019-03-11T18:41:24.129Z,1.70
2019-03-11T18:44:11.325Z,1.50
2019-03-11T18:46:58.790Z,1.80
2019-03-11T18:49:46.475Z,1.50
2019-03-11T18:52:33.918Z,1.70
2019-03-11T18:55:21.428Z,1.50
2019-03-11T18:58:08.970Z,1.70
2019-03-11T19:00:56.474Z,1.60
2019-03-11T19:03:44.003Z,2.00
2019-03-11T19:06:31.576Z,1.80
2019-03-11T19:09:19.390Z,1.83
2019-03-11T19:12:07.345Z,1.90
2019-03-11T19:14:55.135Z,1.73
2019-03-11T19:17:43.414Z,1.70
2019-03-11T19:20:31.313Z,1.80
2019-03-11T19:23:19.287Z,1.80
2019-03-11T19:26:06.977Z,1.80
2019-03-11T19:28:54.951Z,1.90
2019-03-11T19:31:42.687Z,1.90
2019-03-11T19:34:30.083Z,1.50
2019-03-11T19:37:17.456Z,1.60
2019-03-11T19:40:07.783Z,1.50
2019-03-11T19:42:55.148Z,1.50
2019-03-11T19:45:43.043Z,1.60
2019-03-11T19:48:31.025Z,1.97
2019-03-11T19:51:19.020Z,2.00
2019-03-11T19:54:06.670Z,2.10
2019-03-11T19:56:55.300Z,1.80
2019-03-11T19:59:42.535Z,1.60
2019-03-11T20:02:30.156Z,1.80
2019-03-11T20:05:23.831Z,1.50
2019-03-11T20:08:11.702Z,1.60
2019-03-11T20:10:59.697Z,1.53
2019-03-11T20:13:47.013Z,1.40
2019-03-11T20:16:34.676Z,1.70
2019-03-11T20:19:21.758Z,1.60
2019-03-11T20:22:09.666Z,1.37
2019-03-11T20:24:56.717Z,1.60
2019-03-11T20:27:44.179Z,1.57
2019-03-11T20:30:31.912Z,1.20
2019-03-11T20:33:19.533Z,1.00
2019-03-11T20:36:19.803Z,1.10
2019-03-11T20:38:56.316Z,1.13
2019-03-11T20:41:43.916Z,1.20
2019-03-11T20:44:31.032Z,1.10
2019-03-11T20:47:18.796Z,0.90
2019-03-11T20:50:08.832Z,1.23
2019-03-11T20:52:56.381Z,1.30
2019-03-11T20:55:43.497Z,1.30
2019-03-11T20:58:31.045Z,1.20
2019-03-11T21:01:18.810Z,1.20
2019-03-11T21:04:06.176Z,1.37
2019-03-11T21:06:53.599Z,1.47
2019-03-11T21:09:41.249Z,1.37
2019-03-11T21:12:28.707Z,1.70
2019-03-11T21:15:17.213Z,1.70
2019-03-11T21:18:04.605Z,1.70
2019-03-11T21:21:03.936Z,1.87
2019-03-11T21:23:41.164Z,2.10
2019-03-11T21:26:28.771Z,2.10
2019-03-11T21:29:16.277Z,1.90
2019-03-11T21:32:03.549Z,2.10
2019-03-11T21:34:51.073Z,1.90
2019-03-11T21:37:38.828Z,2.00
2019-03-11T21:40:27.802Z,1.80
2019-03-11T21:43:15.675Z,1.77
2019-03-11T21:46:03.270Z,1.80
2019-03-11T21:48:51.084Z,1.83
2019-03-11T21:51:38.589Z,2.33
2019-03-11T21:54:26.174Z,2.30
2019-03-11T21:57:13.976Z,2.30
2019-03-11T22:00:01.826Z,2.90
2019-03-11T22:02:49.576Z,2.53
2019-03-11T22:05:37.116Z,2.37
2019-03-11T22:08:25.071Z,2.53
2019-03-11T22:11:12.471Z,2.60
2019-03-11T22:14:00.294Z,2.90
2019-03-11T22:16:48.051Z,2.60
2019-03-11T22:19:35.443Z,2.93
2019-03-11T22:22:22.884Z,2.37
2019-03-11T22:25:15.293Z,2.23
2019-03-11T22:28:02.741Z,2.40
2019-03-11T22:30:50.683Z,2.70
2019-03-11T22:33:38.696Z,2.07
2019-03-11T22:36:26.231Z,2.17
2019-03-11T22:39:14.271Z,2.20
2019-03-11T22:42:01.909Z,2.07
2019-03-11T22:44:49.540Z,2.10
2019-03-11T22:47:37.154Z,2.20
2019-03-11T22:50:24.982Z,2.00
2019-03-11T22:53:12.660Z,2.20
2019-03-11T22:56:00.666Z,2.07
2019-03-11T22:58:48.316Z,2.07
2019-03-11T23:01:36.163Z,2.40
2019-03-11T23:04:24.051Z,2.23
2019-03-11T23:07:11.989Z,1.90
2019-03-11T23:09:59.515Z,1.67
2019-03-11T23:12:47.067Z,1.97
2019-03-11T23:15:34.676Z,1.80
2019-03-11T23:18:22.000Z,2.20
2019-03-11T23:21:09.720Z,1.87
2019-03-11T23:23:56.956Z,1.63
2019-03-11T23:26:47.957Z,1.80
2019-03-11T23:29:35.791Z,1.70
2019-03-11T23:32:23.315Z,1.70
2019-03-11T23:35:10.960Z,1.67
2019-03-11T23:37:58.891Z,1.50
2019-03-11T23:40:46.408Z,1.30
2019-03-11T23:43:34.764Z,1.43
2019-03-11T23:46:22.476Z,1.30
2019-03-11T23:49:10.154Z,1.63
2019-03-11T23:51:57.660Z,1.40
2019-03-11T23:54:45.153Z,1.67
2019-03-11T23:57:32.681Z,1.50
